Time;durP1;ratioP1;P1;durP2;ratioP2;P2;SDS_P1;SDS_P2;PMS_P1;PMS_P2;Temp;Humidity;BMP_temperature;BMP_pressure;BME280_temperature;BME280_humidity;BME280_pressure;Samples;Min_cycle;Max_cycle;Signal;HPM_P1;HPM_P2
2023/12/14 00:01:57;;;;;;;15.30;9.50;;;6.30;99.90;;;;;;7869142;28;20184;-85
2023/12/14 00:05:42;;;;;;;18.63;10.83;;;6.30;99.90;;;;;;7871040;28;20276;-85
2023/12/14 00:09:28;;;;;;;17.07;9.50;;;6.30;99.90;;;;;;7869048;28;20178;-86
2023/12/14 00:13:13;;;;;;;19.70;9.83;;;6.20;99.90;;;;;;7850529;28;20181;-86
2023/12/14 00:16:59;;;;;;;17.03;9.77;;;6.30;99.90;;;;;;7862368;28;20231;-85
2023/12/14 00:20:44;;;;;;;17.60;9.53;;;6.20;99.90;;;;;;7839494;28;20579;-86
2023/12/14 00:24:30;;;;;;;14.17;8.40;;;6.20;99.90;;;;;;7848358;28;20234;-85
2023/12/14 00:28:17;;;;;;;17.57;9.37;;;6.20;99.90;;;;;;7876926;28;20608;-86
2023/12/14 00:32:02;;;;;;;15.43;8.43;;;6.20;99.90;;;;;;7869252;28;20220;-85
2023/12/14 00:35:48;;;;;;;16.23;8.93;;;6.20;99.90;;;;;;7870182;28;20208;-87
2023/12/14 00:39:34;;;;;;;18.63;9.17;;;6.20;99.90;;;;;;7917631;28;20172;-86
2023/12/14 00:43:19;;;;;;;20.73;10.10;;;6.20;99.90;;;;;;7937800;28;20243;-86
2023/12/14 00:47:05;;;;;;;19.53;9.90;;;6.20;99.90;;;;;;7894018;28;20232;-85
2023/12/14 00:50:50;;;;;;;16.97;8.53;;;6.20;99.90;;;;;;7872951;28;20208;-85
2023/12/14 00:54:36;;;;;;;17.10;9.60;;;6.20;99.90;;;;;;7873860;28;20705;-85
2023/12/14 00:58:22;;;;;;;16.00;9.73;;;6.20;99.90;;;;;;7872401;28;20187;-85
2023/12/14 01:02:07;;;;;;;17.33;9.90;;;6.20;99.90;;;;;;7873648;28;20338;-85
2023/12/14 01:05:53;;;;;;;18.07;10.57;;;6.20;99.90;;;;;;7862896;28;20643;-85
2023/12/14 01:09:39;;;;;;;18.40;9.47;;;6.20;99.90;;;;;;7872036;28;20185;-85
2023/12/14 01:13:24;;;;;;;17.30;10.17;;;6.20;99.90;;;;;;7862482;28;20269;-85
2023/12/14 01:17:10;;;;;;;15.13;8.70;;;6.20;99.90;;;;;;7840914;28;20217;-85
2023/12/14 01:20:55;;;;;;;16.67;10.07;;;6.20;99.90;;;;;;7847424;28;20213;-85
2023/12/14 01:24:41;;;;;;;15.53;9.20;;;6.20;99.90;;;;;;7841987;28;20209;-87
2023/12/14 01:28:26;;;;;;;14.83;8.47;;;6.10;99.90;;;;;;7842756;28;20209;-85
2023/12/14 01:32:12;;;;;;;13.90;8.33;;;6.20;99.90;;;;;;7861453;28;20279;-84
2023/12/14 01:35:58;;;;;;;14.90;8.03;;;6.20;99.90;;;;;;7870252;28;20328;-85
2023/12/14 01:39:43;;;;;;;14.40;9.07;;;6.10;99.90;;;;;;7847035;28;20178;-85
2023/12/14 01:43:29;;;;;;;17.23;9.00;;;6.20;99.90;;;;;;7840533;28;20174;-85
2023/12/14 01:47:15;;;;;;;16.27;9.23;;;6.10;99.90;;;;;;7844509;28;20259;-85
2023/12/14 01:51:01;;;;;;;18.23;9.20;;;6.10;99.90;;;;;;7849677;28;20265;-85
2023/12/14 01:54:47;;;;;;;16.17;9.23;;;6.10;99.90;;;;;;7863033;28;20220;-85
2023/12/14 01:58:32;;;;;;;19.87;10.50;;;6.20;99.90;;;;;;7872112;28;20651;-85
2023/12/14 02:02:18;;;;;;;18.07;9.50;;;6.10;99.90;;;;;;7860674;28;20547;-85
2023/12/14 02:06:04;;;;;;;19.53;9.33;;;6.10;99.90;;;;;;7870630;28;20224;-87
2023/12/14 02:09:50;;;;;;;12.73;8.03;;;6.10;99.90;;;;;;7853063;28;20667;-85
2023/12/14 02:13:36;;;;;;;14.67;7.87;;;6.10;99.90;;;;;;7846354;28;20185;-86
2023/12/14 02:17:22;;;;;;;14.80;8.27;;;6.10;99.90;;;;;;7854273;28;20215;-85
2023/12/14 02:21:08;;;;;;;14.37;8.00;;;6.10;99.90;;;;;;7859514;28;20312;-85
2023/12/14 02:24:53;;;;;;;12.87;7.67;;;6.30;99.90;;;;;;7838957;28;20198;-85
2023/12/14 02:28:39;;;;;;;15.30;7.33;;;6.20;99.90;;;;;;7839184;28;20186;-85
2023/12/14 02:32:24;;;;;;;14.23;7.53;;;6.10;99.90;;;;;;7839029;28;20554;-85
2023/12/14 02:36:10;;;;;;;9.10;5.90;;;6.10;99.90;;;;;;7838852;28;20231;-85
2023/12/14 02:39:56;;;;;;;9.97;5.87;;;6.10;99.90;;;;;;7864820;28;20205;-85
2023/12/14 02:43:41;;;;;;;12.33;5.87;;;6.10;99.90;;;;;;7850930;28;20182;-86
2023/12/14 02:47:28;;;;;;;13.80;5.57;;;6.10;99.90;;;;;;7868349;28;20181;-85
2023/12/14 02:51:14;;;;;;;8.90;5.67;;;6.10;99.90;;;;;;7862309;28;20335;-86
2023/12/14 02:55:00;;;;;;;8.87;5.03;;;6.10;99.90;;;;;;7862664;28;20266;-84
2023/12/14 02:58:51;;;;;;;8.83;5.00;;;6.10;99.90;;;;;;7866198;28;20545;-85
2023/12/14 03:02:37;;;;;;;7.67;4.97;;;6.00;99.90;;;;;;7848417;28;20197;-85
2023/12/14 03:06:22;;;;;;;8.17;5.23;;;6.00;99.90;;;;;;7869426;28;20688;-85
2023/12/14 03:10:09;;;;;;;10.20;5.27;;;6.10;99.90;;;;;;7867323;28;20532;-85
2023/12/14 03:13:54;;;;;;;9.30;5.30;;;6.00;99.90;;;;;;7866169;28;20201;-85
2023/12/14 03:17:40;;;;;;;10.90;5.17;;;6.00;99.90;;;;;;7859980;28;20672;-85
2023/12/14 03:21:25;;;;;;;8.90;5.40;;;6.00;99.90;;;;;;7850510;28;20231;-85
2023/12/14 03:25:11;;;;;;;6.87;4.80;;;6.00;99.90;;;;;;7837538;28;20209;-85
2023/12/14 03:28:57;;;;;;;7.57;4.93;;;6.00;99.90;;;;;;7837409;28;20193;-86
2023/12/14 03:32:42;;;;;;;11.17;6.40;;;6.00;99.90;;;;;;7845158;28;20186;-86
2023/12/14 03:36:28;;;;;;;11.33;6.77;;;6.00;99.90;;;;;;7860170;28;20334;-85
2023/12/14 03:40:14;;;;;;;11.27;6.93;;;6.00;99.90;;;;;;7868446;28;20196;-85
2023/12/14 03:43:59;;;;;;;11.97;7.57;;;6.00;99.90;;;;;;7839574;28;20732;-85
2023/12/14 03:47:45;;;;;;;14.53;7.53;;;6.00;99.90;;;;;;7869428;28;20189;-85
2023/12/14 03:51:31;;;;;;;16.47;8.57;;;6.00;99.90;;;;;;7857827;28;20194;-86
2023/12/14 03:55:16;;;;;;;15.17;8.17;;;5.90;99.90;;;;;;7837034;28;20216;-85
2023/12/14 03:59:02;;;;;;;11.90;7.53;;;6.00;99.90;;;;;;7836927;28;20733;-86
2023/12/14 04:02:47;;;;;;;13.03;7.83;;;6.00;99.90;;;;;;7846731;28;20226;-86
2023/12/14 04:06:33;;;;;;;18.37;9.07;;;6.00;99.90;;;;;;7849069;28;20552;-86
2023/12/14 04:10:19;;;;;;;17.40;9.00;;;6.00;99.90;;;;;;7868252;28;20630;-85
2023/12/14 04:14:04;;;;;;;16.70;8.80;;;6.00;99.90;;;;;;7858508;28;20741;-86
2023/12/14 04:17:50;;;;;;;17.77;9.20;;;6.00;99.90;;;;;;7843528;28;20198;-84
2023/12/14 04:21:36;;;;;;;20.37;9.43;;;5.90;99.90;;;;;;7863643;28;20191;-85
2023/12/14 04:25:22;;;;;;;18.17;8.90;;;6.00;99.90;;;;;;7868162;28;20204;-85
2023/12/14 04:29:08;;;;;;;19.13;9.80;;;6.00;99.90;;;;;;7868307;28;20181;-85
2023/12/14 04:32:53;;;;;;;30.57;11.47;;;6.00;99.90;;;;;;7839755;28;20185;-85
2023/12/14 04:36:39;;;;;;;28.37;13.03;;;6.00;99.90;;;;;;7859805;28;20642;-85
2023/12/14 04:40:25;;;;;;;30.77;13.97;;;5.90;99.90;;;;;;7865748;28;20186;-85
2023/12/14 04:44:11;;;;;;;31.47;12.70;;;5.90;99.90;;;;;;7859306;28;20209;-85
2023/12/14 04:47:57;;;;;;;29.87;14.20;;;6.00;99.90;;;;;;7856488;28;20193;-85
2023/12/14 04:51:43;;;;;;;31.10;13.60;;;5.90;99.90;;;;;;7863487;28;20221;-85
2023/12/14 04:55:28;;;;;;;32.43;15.27;;;5.90;99.90;;;;;;7850855;28;20209;-85
2023/12/14 04:59:14;;;;;;;38.30;17.00;;;5.90;99.90;;;;;;7844385;28;20559;-86
2023/12/14 05:03:00;;;;;;;38.60;16.33;;;6.00;99.90;;;;;;7853651;28;21429;-84
2023/12/14 05:06:45;;;;;;;50.20;17.47;;;6.00;99.90;;;;;;7856120;28;20209;-84
2023/12/14 05:10:31;;;;;;;48.70;17.77;;;5.90;99.90;;;;;;7864908;28;20212;-85
2023/12/14 05:14:16;;;;;;;42.57;17.03;;;5.90;99.90;;;;;;7886939;28;20277;-84
2023/12/14 05:18:03;;;;;;;46.33;17.43;;;5.80;99.90;;;;;;7881572;28;20186;-85
2023/12/14 05:21:49;;;;;;;37.43;17.47;;;5.90;99.90;;;;;;7862995;28;20192;-85
2023/12/14 05:25:34;;;;;;;38.03;16.83;;;5.80;99.90;;;;;;7863688;28;20297;-85
2023/12/14 05:29:21;;;;;;;34.83;15.43;;;5.80;99.90;;;;;;7858959;28;20188;-84
2023/12/14 05:33:07;;;;;;;30.40;15.30;;;5.80;99.90;;;;;;7842749;28;20193;-86
2023/12/14 05:36:53;;;;;;;36.93;15.23;;;5.90;99.90;;;;;;7851539;28;20245;-86
2023/12/14 05:40:38;;;;;;;36.27;15.57;;;5.90;99.90;;;;;;7867594;28;20272;-86
2023/12/14 05:44:24;;;;;;;30.63;14.10;;;5.80;99.90;;;;;;7862248;28;20209;-85
2023/12/14 05:48:10;;;;;;;29.43;15.23;;;5.80;99.90;;;;;;7866579;28;20185;-85
2023/12/14 05:51:59;;;;;;;37.53;14.70;;;5.80;99.90;;;;;;7858219;28;20200;-85
2023/12/14 05:55:46;;;;;;;25.20;13.03;;;5.80;99.90;;;;;;7840375;28;20217;-85
2023/12/14 05:59:31;;;;;;;75.80;14.57;;;5.80;99.90;;;;;;7847276;28;20233;-85
2023/12/14 06:03:17;;;;;;;26.23;14.03;;;5.80;99.90;;;;;;7844315;28;20182;-85
2023/12/14 06:07:03;;;;;;;31.90;14.47;;;5.80;99.90;;;;;;7847251;28;20251;-85
2023/12/14 06:10:49;;;;;;;26.50;13.97;;;5.80;99.90;;;;;;7857534;28;20209;-85
2023/12/14 06:14:35;;;;;;;26.07;14.03;;;5.90;99.90;;;;;;7864752;28;20831;-85
2023/12/14 06:18:20;;;;;;;40.50;13.57;;;5.80;99.90;;;;;;7846478;28;20174;-85
2023/12/14 06:22:06;;;;;;;27.23;14.77;;;5.80;99.90;;;;;;7857519;28;20175;-85
2023/12/14 06:25:52;;;;;;;25.00;14.10;;;5.80;99.90;;;;;;7837827;28;20213;-84
2023/12/14 06:29:37;;;;;;;35.83;13.87;;;5.90;99.90;;;;;;7853958;28;20189;-84
2023/12/14 06:33:23;;;;;;;23.93;14.10;;;5.80;99.90;;;;;;7856886;28;20213;-84
2023/12/14 06:37:09;;;;;;;20.77;12.83;;;5.80;99.90;;;;;;7837301;28;20206;-85
2023/12/14 06:40:54;;;;;;;20.43;10.77;;;5.80;99.90;;;;;;7856947;28;20177;-85
2023/12/14 06:44:40;;;;;;;27.77;11.13;;;5.80;99.90;;;;;;7839561;28;20202;-84
2023/12/14 06:48:26;;;;;;;14.80;9.53;;;5.80;99.90;;;;;;7843409;28;20186;-85
2023/12/14 06:52:11;;;;;;;20.70;8.93;;;5.80;99.90;;;;;;7836396;28;20276;-85
2023/12/14 06:55:57;;;;;;;25.83;8.93;;;5.80;99.90;;;;;;7849338;28;20239;-85
2023/12/14 06:59:42;;;;;;;14.80;7.77;;;5.70;99.90;;;;;;7846802;28;20182;-85
2023/12/14 07:03:28;;;;;;;13.43;8.60;;;5.80;99.90;;;;;;7862574;28;20178;-86
2023/12/14 07:07:15;;;;;;;16.67;7.80;;;5.70;99.90;;;;;;7846235;28;20564;-84
2023/12/14 07:11:01;;;;;;;15.43;8.50;;;5.80;99.90;;;;;;7843526;28;20286;-86
2023/12/14 07:14:47;;;;;;;12.93;7.90;;;5.70;99.90;;;;;;7852456;28;20268;-85
2023/12/14 07:18:33;;;;;;;23.60;18.83;;;5.80;99.90;;;;;;7867349;28;20205;-85
2023/12/14 07:22:19;;;;;;;16.20;10.23;;;5.80;99.90;;;;;;7867276;28;20187;-85
2023/12/14 07:26:05;;;;;;;12.70;8.00;;;5.80;99.90;;;;;;7857433;28;20198;-86
2023/12/14 07:29:51;;;;;;;14.97;8.00;;;5.80;99.90;;;;;;7835561;28;20224;-85
2023/12/14 07:33:36;;;;;;;14.00;7.70;;;5.80;99.90;;;;;;7860143;28;20215;-85
2023/12/14 07:37:22;;;;;;;15.57;8.03;;;5.80;99.90;;;;;;7875969;28;20217;-86
2023/12/14 07:41:08;;;;;;;13.00;7.93;;;5.80;99.90;;;;;;7836235;28;20163;-85
2023/12/14 07:44:54;;;;;;;15.37;7.70;;;5.80;99.90;;;;;;7838982;28;20285;-85
2023/12/14 07:48:39;;;;;;;17.23;8.67;;;5.80;99.90;;;;;;7848798;28;20201;-85
2023/12/14 07:52:25;;;;;;;16.10;8.90;;;5.80;99.90;;;;;;7835810;28;20686;-86
2023/12/14 07:56:11;;;;;;;16.17;8.47;;;5.70;99.90;;;;;;7835352;28;20213;-85
2023/12/14 07:59:57;;;;;;;16.83;9.40;;;5.70;99.90;;;;;;7835923;28;20264;-85
2023/12/14 08:03:42;;;;;;;20.73;9.60;;;5.60;99.90;;;;;;7866045;28;20177;-85
2023/12/14 08:07:29;;;;;;;28.57;9.97;;;5.60;99.90;;;;;;7866373;28;20184;-85
2023/12/14 08:11:14;;;;;;;22.40;9.20;;;5.60;99.90;;;;;;7855161;28;20338;-85
2023/12/14 08:15:00;;;;;;;21.60;11.07;;;5.60;99.90;;;;;;7865885;28;20212;-85
2023/12/14 08:18:47;;;;;;;20.23;10.57;;;5.60;99.90;;;;;;7865866;28;20323;-85
2023/12/14 08:22:32;;;;;;;19.30;10.50;;;5.50;99.90;;;;;;7866020;28;20193;-84
2023/12/14 08:26:18;;;;;;;18.03;9.67;;;5.50;99.90;;;;;;7866107;28;20215;-85
2023/12/14 08:30:05;;;;;;;18.03;8.60;;;5.50;99.90;;;;;;7856244;28;20236;-86
2023/12/14 08:33:52;;;;;;;20.27;10.93;;;5.50;99.90;;;;;;7836202;28;20174;-86
2023/12/14 08:37:37;;;;;;;19.27;11.00;;;5.50;99.90;;;;;;7834935;28;20272;-86
2023/12/14 08:41:23;;;;;;;17.73;9.27;;;5.50;99.90;;;;;;7834409;28;20178;-85
2023/12/14 08:45:11;;;;;;;14.77;8.60;;;5.50;99.90;;;;;;7835778;28;20263;-85
2023/12/14 08:48:57;;;;;;;15.90;9.57;;;5.50;99.90;;;;;;7840921;28;20185;-86
2023/12/14 08:52:42;;;;;;;18.23;9.83;;;5.60;99.90;;;;;;7840747;28;20245;-85
2023/12/14 08:56:28;;;;;;;14.40;8.30;;;5.60;99.90;;;;;;7841592;28;20593;-85
2023/12/14 09:00:14;;;;;;;14.43;8.33;;;5.60;99.90;;;;;;7841848;28;20198;-85
2023/12/14 09:04:00;;;;;;;12.50;7.17;;;5.60;99.90;;;;;;7840521;28;20209;-85
2023/12/14 09:07:46;;;;;;;10.40;6.10;;;5.60;99.90;;;;;;7867922;28;20268;-87
2023/12/14 09:11:31;;;;;;;13.80;7.90;;;5.60;99.90;;;;;;7871776;28;20223;-85
2023/12/14 09:15:17;;;;;;;12.00;7.70;;;5.50;99.90;;;;;;7862787;28;20688;-86
2023/12/14 09:19:03;;;;;;;16.70;10.23;;;5.50;99.90;;;;;;7844110;28;20545;-85
2023/12/14 09:22:48;;;;;;;13.27;8.80;;;5.50;99.90;;;;;;7840654;28;20557;-86
2023/12/14 09:26:34;;;;;;;14.13;8.17;;;5.50;99.90;;;;;;7840503;28;20204;-86
2023/12/14 09:30:20;;;;;;;13.00;7.30;;;5.50;99.90;;;;;;7839746;28;20186;-85
2023/12/14 09:34:06;;;;;;;13.67;6.97;;;5.40;99.90;;;;;;7850466;28;20201;-86
2023/12/14 09:37:53;;;;;;;11.53;7.80;;;5.50;99.90;;;;;;7860008;28;20205;-85
2023/12/14 09:41:39;;;;;;;10.93;6.37;;;5.40;99.90;;;;;;7839809;28;20196;-85
2023/12/14 09:45:29;;;;;;;12.80;6.20;;;5.50;99.90;;;;;;7856192;28;20198;-86
2023/12/14 09:49:15;;;;;;;7.80;4.50;;;5.40;99.90;;;;;;7897924;28;20185;-85
2023/12/14 09:53:01;;;;;;;8.77;4.57;;;5.50;99.90;;;;;;7896783;28;20209;-85
2023/12/14 09:56:48;;;;;;;5.60;3.43;;;5.50;99.90;;;;;;7850519;28;20267;-85
2023/12/14 10:00:38;;;;;;;6.40;3.90;;;5.50;99.90;;;;;;7839238;28;20178;-85
2023/12/14 10:04:24;;;;;;;4.80;3.43;;;5.50;99.90;;;;;;7838166;28;20202;-85
2023/12/14 10:08:09;;;;;;;8.83;6.07;;;5.40;99.90;;;;;;7838405;28;20186;-85
2023/12/14 10:12:06;;;;;;;22.00;13.50;;;5.50;99.90;;;;;;7852157;28;20197;-86
2023/12/14 10:15:51;;;;;;;7.70;4.37;;;5.50;99.90;;;;;;7870155;28;20209;-84
2023/12/14 10:19:37;;;;;;;5.20;2.93;;;5.40;99.90;;;;;;7869786;28;20170;-85
2023/12/14 10:23:22;;;;;;;4.50;2.90;;;5.50;99.90;;;;;;7868273;28;20673;-85
2023/12/14 10:27:08;;;;;;;3.87;2.60;;;5.50;99.90;;;;;;7867310;28;20221;-84
2023/12/14 10:30:54;;;;;;;4.23;2.53;;;5.40;99.90;;;;;;7836842;28;20281;-85
2023/12/14 10:34:40;;;;;;;5.23;3.23;;;5.40;99.90;;;;;;7867108;28;20212;-85
2023/12/14 10:38:29;;;;;;;4.80;3.40;;;5.50;99.90;;;;;;7868149;28;20670;-85
2023/12/14 10:42:18;;;;;;;5.70;3.30;;;5.40;99.90;;;;;;7868441;28;20196;-85
2023/12/14 10:46:07;;;;;;;6.00;3.77;;;5.30;99.90;;;;;;7853213;28;20256;-86
2023/12/14 10:49:54;;;;;;;4.93;3.40;;;5.40;99.90;;;;;;7837937;28;20186;-85
2023/12/14 10:53:44;;;;;;;6.30;3.60;;;5.30;99.90;;;;;;7837409;28;20255;-85
2023/12/14 10:57:30;;;;;;;7.17;4.67;;;5.50;99.90;;;;;;7855927;28;20205;-85
2023/12/14 11:01:18;;;;;;;7.33;4.83;;;5.30;99.90;;;;;;7842024;28;20220;-85
2023/12/14 11:05:09;;;;;;;8.80;5.53;;;5.30;99.90;;;;;;7836431;28;20554;-85
2023/12/14 11:09:06;;;;;;;6.97;4.50;;;5.30;99.90;;;;;;7860775;28;20181;-85
2023/12/14 11:12:57;;;;;;;7.57;4.13;;;5.20;99.90;;;;;;7869427;28;20185;-85
2023/12/14 11:16:46;;;;;;;5.90;3.77;;;5.30;99.90;;;;;;7867641;28;20236;-85
2023/12/14 11:20:46;;;;;;;6.20;3.90;;;5.30;99.90;;;;;;7849162;28;20177;-84
2023/12/14 11:24:32;;;;;;;7.37;4.60;;;5.20;99.90;;;;;;7864561;28;20254;-84
2023/12/14 11:28:19;;;;;;;6.77;3.87;;;5.20;99.90;;;;;;7861384;28;20272;-84
2023/12/14 11:32:08;;;;;;;6.87;3.77;;;5.20;99.90;;;;;;7837634;28;20180;-85
2023/12/14 11:35:54;;;;;;;7.00;3.80;;;5.10;99.90;;;;;;7857408;28;20213;-84
2023/12/14 11:39:40;;;;;;;8.30;4.27;;;5.20;99.90;;;;;;7868069;28;20173;-84
2023/12/14 11:43:26;;;;;;;7.73;4.97;;;5.30;99.90;;;;;;7836351;28;20189;-84
2023/12/14 11:47:11;;;;;;;6.17;4.10;;;5.20;99.90;;;;;;7835930;28;20201;-85
2023/12/14 11:50:57;;;;;;;6.47;4.20;;;5.30;99.90;;;;;;7840162;28;20192;-85
2023/12/14 11:54:43;;;;;;;7.10;4.00;;;5.20;99.90;;;;;;7848472;28;20710;-85
2023/12/14 11:58:34;;;;;;;10.27;5.00;;;5.10;99.90;;;;;;7855689;28;20246;-86
2023/12/14 12:02:25;;;;;;;15.47;5.90;;;5.10;99.90;;;;;;7865227;28;20169;-85
2023/12/14 12:06:25;;;;;;;11.90;6.30;;;5.00;99.90;;;;;;7865468;28;20201;-86
2023/12/14 12:10:11;;;;;;;12.87;6.23;;;4.90;99.90;;;;;;7867909;28;20184;-86
2023/12/14 12:13:59;;;;;;;12.60;6.17;;;4.80;99.90;;;;;;7849800;28;20285;-86
2023/12/14 12:17:45;;;;;;;11.87;6.80;;;5.00;99.90;;;;;;7835272;28;20667;-86
2023/12/14 12:21:31;;;;;;;15.80;8.03;;;4.70;99.90;;;;;;7852711;28;20552;-86
2023/12/14 12:25:16;;;;;;;16.07;7.43;;;4.80;99.90;;;;;;7866512;28;20205;-85
2023/12/14 12:29:05;;;;;;;12.87;6.70;;;4.90;99.90;;;;;;7866740;28;20181;-86
2023/12/14 12:32:52;;;;;;;15.80;6.57;;;4.90;99.90;;;;;;7856429;28;20189;-86
2023/12/14 12:36:37;;;;;;;14.23;7.23;;;4.80;99.90;;;;;;7858805;28;20213;-85
2023/12/14 12:40:26;;;;;;;16.00;8.60;;;4.80;99.90;;;;;;7866001;28;20223;-85
2023/12/14 12:44:11;;;;;;;15.03;7.43;;;4.80;99.90;;;;;;7865596;28;20295;-85
2023/12/14 12:47:57;;;;;;;12.13;5.97;;;4.70;99.90;;;;;;7865426;28;20192;-86
2023/12/14 12:51:42;;;;;;;13.47;6.97;;;4.90;99.90;;;;;;7866094;28;20201;-85
2023/12/14 12:55:28;;;;;;;11.93;7.10;;;4.80;99.90;;;;;;7865786;28;20237;-86
2023/12/14 12:59:14;;;;;;;15.93;7.37;;;4.90;99.90;;;;;;7842763;28;20549;-86
2023/12/14 13:03:01;;;;;;;15.47;7.50;;;4.90;99.90;;;;;;7834965;28;20830;-86
2023/12/14 13:06:50;;;;;;;19.40;10.20;;;4.70;99.90;;;;;;7842697;28;20219;-86
2023/12/14 13:10:37;;;;;;;23.20;11.73;;;4.90;99.90;;;;;;7865867;28;20213;-87
2023/12/14 13:14:23;;;;;;;27.70;15.63;;;4.70;99.90;;;;;;7865999;28;20830;-86
2023/12/14 13:18:09;;;;;;;18.73;11.30;;;4.60;99.90;;;;;;7855390;28;20325;-84
2023/12/14 13:21:57;;;;;;;15.93;8.93;;;4.70;99.90;;;;;;7842001;28;20195;-86
2023/12/14 13:25:44;;;;;;;17.20;9.10;;;4.90;99.90;;;;;;7859256;28;20202;-85
2023/12/14 13:29:32;;;;;;;18.87;9.47;;;4.90;99.90;;;;;;7861375;28;20177;-85
2023/12/14 13:33:18;;;;;;;59.77;31.33;;;5.00;99.90;;;;;;7868134;28;20170;-85
2023/12/14 13:37:04;;;;;;;59.27;32.67;;;5.00;99.90;;;;;;7853319;28;20267;-85
2023/12/14 13:40:50;;;;;;;28.87;16.17;;;5.00;99.90;;;;;;7839661;28;20711;-85
2023/12/14 13:44:35;;;;;;;14.00;8.23;;;5.10;99.90;;;;;;7841199;28;20571;-85
2023/12/14 13:48:21;;;;;;;13.83;7.50;;;5.20;99.90;;;;;;7862241;28;20260;-85
2023/12/14 13:52:07;;;;;;;12.07;7.03;;;5.40;99.90;;;;;;7870454;28;20685;-86
2023/12/14 13:55:52;;;;;;;13.17;6.57;;;5.30;99.90;;;;;;7870397;28;20580;-84
2023/12/14 13:59:38;;;;;;;11.83;6.97;;;5.10;99.90;;;;;;7862361;28;20226;-85
2023/12/14 14:03:26;;;;;;;10.40;5.50;;;5.10;99.90;;;;;;7855617;28;20181;-86
2023/12/14 14:07:11;;;;;;;10.10;5.27;;;5.20;99.90;;;;;;7860170;28;20210;-86
2023/12/14 14:11:00;;;;;;;10.57;5.57;;;5.30;99.90;;;;;;7840192;28;20216;-84
2023/12/14 14:14:46;;;;;;;10.00;5.13;;;5.30;99.90;;;;;;7844291;28;20223;-85
2023/12/14 14:18:31;;;;;;;7.60;4.90;;;5.00;99.90;;;;;;7858650;28;20181;-87
2023/12/14 14:22:17;;;;;;;9.33;4.90;;;5.20;99.90;;;;;;7844341;28;20703;-87
2023/12/14 14:26:03;;;;;;;11.43;6.20;;;5.10;99.90;;;;;;7856418;28;20209;-85
2023/12/14 14:29:50;;;;;;;10.37;5.33;;;5.20;99.90;;;;;;7855001;28;20235;-85
2023/12/14 14:33:35;;;;;;;22.70;11.67;;;5.20;99.90;;;;;;7853559;28;20267;-84
2023/12/14 14:37:21;;;;;;;29.23;12.90;;;5.30;99.90;;;;;;7903080;28;20229;-85
2023/12/14 14:41:07;;;;;;;17.33;8.57;;;5.20;99.90;;;;;;7904309;28;20652;-84
2023/12/14 14:44:52;;;;;;;14.63;8.57;;;5.20;99.90;;;;;;7869166;28;20209;-84
2023/12/14 14:48:38;;;;;;;8.77;5.40;;;5.10;99.90;;;;;;7869666;28;20663;-85
2023/12/14 14:52:24;;;;;;;6.33;3.90;;;5.10;99.90;;;;;;7869310;28;20201;-85
2023/12/14 14:56:10;;;;;;;6.70;4.00;;;5.00;99.90;;;;;;7868183;28;20226;-85
2023/12/14 14:59:57;;;;;;;5.07;3.23;;;5.10;99.90;;;;;;7838581;28;20275;-85
2023/12/14 15:03:43;;;;;;;6.40;3.57;;;5.00;99.90;;;;;;7838645;28;20178;-83
2023/12/14 15:07:30;;;;;;;7.43;3.77;;;5.10;99.90;;;;;;7868526;28;20193;-86
2023/12/14 15:11:15;;;;;;;8.30;5.43;;;5.00;99.90;;;;;;7861410;28;20274;-86
2023/12/14 15:15:04;;;;;;;5.73;4.23;;;5.00;99.90;;;;;;7837557;28;20213;-86
2023/12/14 15:18:53;;;;;;;5.63;3.50;;;5.00;99.90;;;;;;7837514;28;20333;-85
2023/12/14 15:22:38;;;;;;;6.50;4.63;;;4.90;99.90;;;;;;7837196;28;20269;-85
2023/12/14 15:26:24;;;;;;;4.57;3.27;;;4.90;99.90;;;;;;7847869;28;20264;-86
2023/12/14 15:30:11;;;;;;;5.53;3.30;;;4.90;99.90;;;;;;7838205;28;20786;-86
2023/12/14 15:33:57;;;;;;;6.83;3.93;;;4.70;99.90;;;;;;7836382;28;20181;-86
2023/12/14 15:37:42;;;;;;;7.53;4.87;;;4.70;99.90;;;;;;7837703;28;20233;-86
2023/12/14 15:41:28;;;;;;;8.43;5.27;;;4.60;99.90;;;;;;7836378;28;20213;-86
2023/12/14 15:45:14;;;;;;;7.83;5.53;;;4.50;99.90;;;;;;7836965;28;20205;-86
2023/12/14 15:48:59;;;;;;;7.43;5.27;;;4.50;99.90;;;;;;7859323;28;20216;-86
2023/12/14 15:52:45;;;;;;;9.33;5.93;;;4.70;99.90;;;;;;7840711;28;20200;-86
2023/12/14 15:56:31;;;;;;;8.13;6.23;;;4.70;99.90;;;;;;7835792;28;20331;-86
2023/12/14 16:00:17;;;;;;;8.20;5.50;;;4.90;99.90;;;;;;7853653;28;20219;-86
2023/12/14 16:04:02;;;;;;;8.23;4.70;;;4.60;99.90;;;;;;7857083;28;20174;-85
2023/12/14 16:07:48;;;;;;;7.10;4.67;;;4.50;99.90;;;;;;7844661;28;20185;-85
2023/12/14 16:11:34;;;;;;;8.07;4.83;;;4.60;99.90;;;;;;7866436;28;20177;-86
2023/12/14 16:15:20;;;;;;;7.93;5.00;;;4.60;99.90;;;;;;7864189;28;20283;-86
2023/12/14 16:19:06;;;;;;;11.00;5.63;;;4.50;99.90;;;;;;7850221;28;20166;-86
2023/12/14 16:22:52;;;;;;;10.73;6.43;;;4.40;99.90;;;;;;7835848;28;20182;-86
2023/12/14 16:26:41;;;;;;;6.67;5.00;;;4.30;99.90;;;;;;7850781;28;20692;-86
2023/12/14 16:30:27;;;;;;;13.20;6.83;;;4.40;99.90;;;;;;7848205;28;20204;-86
2023/12/14 16:34:13;;;;;;;8.63;5.50;;;4.30;99.90;;;;;;7866332;28;20288;-86
2023/12/14 16:37:59;;;;;;;9.20;5.83;;;4.30;99.90;;;;;;7867689;28;20193;-87
2023/12/14 16:41:44;;;;;;;10.40;6.60;;;4.20;99.90;;;;;;7862426;28;20660;-86
2023/12/14 16:45:30;;;;;;;10.90;8.03;;;4.30;99.90;;;;;;7843246;28;20197;-86
2023/12/14 16:49:15;;;;;;;10.13;7.10;;;4.10;99.90;;;;;;7850001;28;20190;-86
2023/12/14 16:53:01;;;;;;;9.23;6.03;;;4.10;99.90;;;;;;7863708;28;20573;-87
2023/12/14 16:56:47;;;;;;;10.17;6.00;;;4.20;99.90;;;;;;7841952;28;20760;-85
2023/12/14 17:00:33;;;;;;;13.70;7.60;;;4.20;99.90;;;;;;7845137;28;20614;-87
2023/12/14 17:04:18;;;;;;;7.50;5.50;;;4.30;99.90;;;;;;7864627;28;20308;-87
2023/12/14 17:08:04;;;;;;;9.57;6.40;;;4.40;99.90;;;;;;7866330;28;20271;-86
2023/12/14 17:11:50;;;;;;;11.53;7.63;;;4.30;99.90;;;;;;7850705;28;20429;-86
2023/12/14 17:15:35;;;;;;;10.73;5.93;;;4.30;99.90;;;;;;7856093;28;20628;-85
2023/12/14 17:19:21;;;;;;;8.23;5.60;;;4.30;99.90;;;;;;7871607;28;20177;-86
2023/12/14 17:23:07;;;;;;;8.67;5.57;;;4.10;99.90;;;;;;7858647;28;20178;-87
2023/12/14 17:26:54;;;;;;;11.87;6.30;;;4.20;99.90;;;;;;7855797;28;20205;-85
2023/12/14 17:30:39;;;;;;;11.57;7.00;;;4.10;99.90;;;;;;7851257;28;20694;-86
2023/12/14 17:34:25;;;;;;;27.87;13.77;;;4.10;99.90;;;;;;7858233;28;20621;-86
2023/12/14 17:38:11;;;;;;;18.63;9.33;;;4.10;99.90;;;;;;7840642;28;20272;-86
2023/12/14 17:41:56;;;;;;;19.17;9.53;;;4.00;99.90;;;;;;7869474;28;20177;-86
2023/12/14 17:45:42;;;;;;;12.53;7.30;;;4.10;99.90;;;;;;7853741;28;20201;-86
2023/12/14 17:49:28;;;;;;;8.90;5.07;;;4.20;99.90;;;;;;7862596;28;20798;-87
2023/12/14 17:53:13;;;;;;;9.13;5.07;;;4.10;99.90;;;;;;7854422;28;20577;-86
2023/12/14 17:57:00;;;;;;;7.70;4.77;;;4.00;99.90;;;;;;7858072;28;20582;-86
2023/12/14 18:00:45;;;;;;;7.43;4.20;;;4.10;99.90;;;;;;7861502;28;20220;-86
2023/12/14 18:04:31;;;;;;;10.93;6.00;;;4.00;99.90;;;;;;7865710;28;20556;-86
2023/12/14 18:08:17;;;;;;;6.93;4.40;;;4.10;99.90;;;;;;7858848;28;20186;-86
2023/12/14 18:12:03;;;;;;;10.00;6.17;;;4.00;99.90;;;;;;7859794;28;20189;-86
2023/12/14 18:15:48;;;;;;;55.00;29.40;;;4.00;99.90;;;;;;7871934;28;20201;-87
2023/12/14 18:19:34;;;;;;;147.07;48.63;;;4.10;99.90;;;;;;7851051;28;20219;-86
2023/12/14 18:23:20;;;;;;;91.63;35.13;;;3.90;99.90;;;;;;7862916;28;20300;-86
2023/12/14 18:27:05;;;;;;;62.33;26.30;;;3.80;99.90;;;;;;7869532;28;20624;-87
2023/12/14 18:30:51;;;;;;;80.17;36.50;;;3.80;99.90;;;;;;7866428;28;20185;-86
2023/12/14 18:34:40;;;;;;;63.63;30.27;;;3.80;99.90;;;;;;7856460;28;20221;-86
2023/12/14 18:38:27;;;;;;;27.13;16.60;;;3.80;99.90;;;;;;7862160;28;20212;-88
2023/12/14 18:42:13;;;;;;;21.00;14.57;;;3.80;99.90;;;;;;7849254;28;20182;-87
2023/12/14 18:45:58;;;;;;;13.27;10.03;;;3.80;99.90;;;;;;7861379;28;20225;-87
2023/12/14 18:49:44;;;;;;;17.90;12.60;;;3.80;99.90;;;;;;7849177;28;20264;-87
2023/12/14 18:53:30;;;;;;;15.80;10.60;;;3.80;99.90;;;;;;7859185;28;20204;-87
2023/12/14 18:57:16;;;;;;;21.73;12.85;;;3.90;99.90;;;;;;7863670;28;20426;-87
2023/12/14 19:01:02;;;;;;;69.40;32.50;;;4.00;99.90;;;;;;7850089;28;20169;-88
2023/12/14 19:04:48;;;;;;;45.10;23.37;;;4.10;99.90;;;;;;7866080;28;20220;-87
2023/12/14 19:08:35;;;;;;;28.70;16.23;;;4.00;99.90;;;;;;7863066;28;20247;-88
2023/12/14 19:12:22;;;;;;;14.83;9.10;;;3.90;99.90;;;;;;7891615;28;20178;-87
2023/12/14 19:16:09;;;;;;;16.70;10.13;;;4.00;99.90;;;;;;7889157;28;20213;-86
2023/12/14 19:19:54;;;;;;;22.07;12.83;;;4.00;99.90;;;;;;7867656;28;20197;-86
2023/12/14 19:23:40;;;;;;;34.43;18.27;;;4.10;99.90;;;;;;7862695;28;20235;-86
2023/12/14 19:27:26;;;;;;;18.53;11.07;;;4.00;99.90;;;;;;7840854;28;20198;-86
2023/12/14 19:31:12;;;;;;;10.40;6.00;;;4.00;99.90;;;;;;7851662;28;20662;-87
2023/12/14 19:34:58;;;;;;;8.80;5.60;;;4.00;99.90;;;;;;7852156;28;20227;-86
2023/12/14 19:38:45;;;;;;;11.63;7.33;;;4.10;99.90;;;;;;7845245;28;20675;-87